Portada
METAR-TAF:

METAR-TAF

Aeroports :

Bangalore, Índia

latitud: 12-57-00N, longitud: 077-40-06E, altitud: 888 m

Observació

L'informe es va fer fa 36 minuts, a les 10:00 UTC
Vent 7 kt del Est
Temperatura 26°C
Humitat 58%
Pressió 1015 hPa
Visibilitat: 8000 m
Escasses núvols a una alçada de 1200 ft
Núvols disperses a una alçada de 1800 ft

METAR: VOBG 151000Z 09007KT 8000 FEW012 SCT018 26/17 Q1015 NOSIG

Hora: 16:06 (10:36 UTC)

Pronòstic

L'informe es va fer fa 2 hores i 36 minuts, a les 08:00 UTC
Pronòstic vàlid del 15 a les 09 UTC al 15 a les 18 UTC
Vent 10 kt del Est
Visibilitat: 6000 m
Núvols disperses a una alçada de 1500 ft
Núvols disperses a una alçada de 2000 ft

TAF: VOBG 150800Z 1509/1518 09010KT 6000 SCT015 SCT020

Observacions i pronòstics meteorològics de més de 4000 aeroports (METAR i TAF).

Les estacions disponibles són els punts grocs i vermells al mapa.

Posi el ratolí al punt desitjat per veure el nom de l'estació.

Feu clic per veure les observacions i els pronòstics meteorològics.

Per canviar el mapa: feu clic els botons verds amb una creu de color negre per apropar; al botó verd amb un guió per allunyar la imatge; o en les fletxes verdes per a mapes adjacents.


METAR-TAF: